createdAt,value
2017-12-21T00:00:41.250Z,38.80
2017-12-21T00:01:41.235Z,36.00
2017-12-21T00:02:41.239Z,39.40
2017-12-21T00:03:41.195Z,45.10
2017-12-21T00:04:41.180Z,40.90
2017-12-21T00:05:41.161Z,45.80
2017-12-21T00:06:41.139Z,43.90
2017-12-21T00:07:41.121Z,41.50
2017-12-21T00:08:41.111Z,42.70
2017-12-21T00:09:41.088Z,40.40
2017-12-21T00:10:41.072Z,41.50
2017-12-21T00:11:41.048Z,44.10
2017-12-21T00:12:41.038Z,44.30
2017-12-21T00:13:41.036Z,44.00
2017-12-21T00:14:41.000Z,48.80
2017-12-21T00:15:40.989Z,43.00
2017-12-21T00:16:40.960Z,41.60
2017-12-21T00:17:40.938Z,42.30
2017-12-21T00:18:40.918Z,45.90
2017-12-21T00:19:40.903Z,45.20
2017-12-21T00:20:40.880Z,46.20
2017-12-21T00:21:40.865Z,44.20
2017-12-21T00:22:40.883Z,44.60
2017-12-21T00:23:40.833Z,46.40
2017-12-21T00:24:40.814Z,46.40
2017-12-21T00:25:40.791Z,43.40
2017-12-21T00:26:40.772Z,38.20
2017-12-21T00:27:40.756Z,42.70
2017-12-21T00:28:40.741Z,45.00
2017-12-21T00:29:40.720Z,46.40
2017-12-21T00:30:40.693Z,47.40
2017-12-21T00:31:40.684Z,43.40
2017-12-21T00:32:40.665Z,46.90
2017-12-21T00:33:40.645Z,46.40
2017-12-21T00:34:40.651Z,44.20
2017-12-21T00:35:40.607Z,42.10
2017-12-21T00:36:40.590Z,41.50
2017-12-21T00:37:40.682Z,43.20
2017-12-21T00:38:40.557Z,41.80
2017-12-21T00:39:40.539Z,45.20
2017-12-21T00:40:40.526Z,42.00
2017-12-21T00:41:40.497Z,40.70
2017-12-21T00:42:40.480Z,45.40
2017-12-21T00:43:40.503Z,45.50
2017-12-21T00:44:40.449Z,48.10
2017-12-21T00:45:40.453Z,45.60
2017-12-21T00:46:40.402Z,48.00
2017-12-21T00:47:40.400Z,48.80
2017-12-21T00:48:40.378Z,51.90
2017-12-21T00:49:40.345Z,49.60
2017-12-21T00:50:40.339Z,49.20
2017-12-21T00:51:40.310Z,51.50
2017-12-21T00:52:40.301Z,52.80
2017-12-21T00:53:40.275Z,53.10
2017-12-21T00:54:40.252Z,45.30
2017-12-21T00:55:40.240Z,51.20
2017-12-21T00:56:40.220Z,48.60
2017-12-21T00:57:40.203Z,56.00
2017-12-21T00:58:40.186Z,51.40
2017-12-21T00:59:40.160Z,49.30
2017-12-21T01:00:40.151Z,54.00
2017-12-21T01:01:40.131Z,49.10
2017-12-21T01:02:40.159Z,50.10
2017-12-21T01:03:40.087Z,46.20
2017-12-21T01:04:40.074Z,49.20
2017-12-21T01:05:40.051Z,45.00
2017-12-21T01:06:40.037Z,55.00
2017-12-21T01:07:40.027Z,52.00
2017-12-21T01:08:40.007Z,46.60
2017-12-21T01:09:40.015Z,51.90
2017-12-21T01:10:39.962Z,50.30
2017-12-21T01:11:39.941Z,50.70
2017-12-21T01:12:39.932Z,45.80
2017-12-21T01:13:39.923Z,52.10
2017-12-21T01:14:39.891Z,49.20
2017-12-21T01:15:39.883Z,53.00
2017-12-21T01:16:39.856Z,53.00
2017-12-21T01:17:39.834Z,60.40
2017-12-21T01:18:39.828Z,52.30
2017-12-21T01:19:39.805Z,49.30
2017-12-21T01:20:39.784Z,53.50
2017-12-21T01:21:39.768Z,46.40
2017-12-21T01:22:39.752Z,52.50
2017-12-21T01:23:39.723Z,58.60
2017-12-21T01:24:39.705Z,52.70
2017-12-21T01:25:39.717Z,50.20
2017-12-21T01:26:39.670Z,49.00
2017-12-21T01:27:39.651Z,51.50
2017-12-21T01:28:39.631Z,54.50
2017-12-21T01:29:39.623Z,52.30
2017-12-21T01:30:39.599Z,55.80
2017-12-21T01:31:39.580Z,56.30
2017-12-21T01:32:39.556Z,47.70
2017-12-21T01:33:39.550Z,52.10
2017-12-21T01:34:39.524Z,52.00
2017-12-21T01:35:39.502Z,47.30
2017-12-21T01:36:39.506Z,49.30
2017-12-21T01:37:39.476Z,50.40
2017-12-21T01:38:39.454Z,49.20
2017-12-21T01:39:39.434Z,53.70
2017-12-21T01:40:39.416Z,53.20
2017-12-21T01:41:39.397Z,55.30
2017-12-21T01:42:39.387Z,48.40
2017-12-21T01:43:39.363Z,56.20
2017-12-21T01:44:39.358Z,50.80
2017-12-21T01:45:39.325Z,48.40
2017-12-21T01:46:39.313Z,46.70
2017-12-21T01:47:39.285Z,52.80
2017-12-21T01:48:39.275Z,50.70
2017-12-21T01:49:39.247Z,49.80
2017-12-21T01:50:39.237Z,45.60
2017-12-21T01:51:39.213Z,50.70
2017-12-21T01:52:39.195Z,41.60
2017-12-21T01:53:39.173Z,48.70
2017-12-21T01:54:39.157Z,45.70
2017-12-21T01:55:39.138Z,45.10
2017-12-21T01:56:39.124Z,49.10
2017-12-21T01:57:39.102Z,46.80
2017-12-21T01:58:39.099Z,43.20
2017-12-21T01:59:39.066Z,45.30
2017-12-21T02:00:39.048Z,43.40
2017-12-21T02:01:39.030Z,44.90
2017-12-21T02:02:39.030Z,44.60
2017-12-21T02:03:38.994Z,45.10
2017-12-21T02:04:38.974Z,49.40
2017-12-21T02:05:38.957Z,49.00
2017-12-21T02:06:38.937Z,52.00
2017-12-21T02:07:38.921Z,44.70
2017-12-21T02:08:38.912Z,47.90
2017-12-21T02:09:39.051Z,53.10
2017-12-21T02:10:38.864Z,41.00
2017-12-21T02:11:38.845Z,45.80
2017-12-21T02:12:38.828Z,41.90
2017-12-21T02:13:38.809Z,49.40
2017-12-21T02:14:38.790Z,45.90
2017-12-21T02:15:38.773Z,53.40
2017-12-21T02:16:38.753Z,57.00
2017-12-21T02:17:38.734Z,53.30
2017-12-21T02:18:38.716Z,54.50
2017-12-21T02:19:38.705Z,50.90
2017-12-21T02:20:38.680Z,53.20
2017-12-21T02:21:38.667Z,48.20
2017-12-21T02:22:38.642Z,48.60
2017-12-21T02:23:38.680Z,47.20
2017-12-21T02:24:38.609Z,50.80
2017-12-21T02:25:38.588Z,50.10
2017-12-21T02:26:38.564Z,47.90
2017-12-21T02:27:38.549Z,48.40
2017-12-21T02:28:38.532Z,53.00
2017-12-21T02:29:38.513Z,54.60
2017-12-21T02:30:38.494Z,59.90
2017-12-21T02:31:38.481Z,54.80
2017-12-21T02:32:38.460Z,52.30
2017-12-21T02:33:38.441Z,52.30
2017-12-21T02:34:38.424Z,57.80
2017-12-21T02:35:38.404Z,57.60
2017-12-21T02:36:38.415Z,67.00
2017-12-21T02:37:38.390Z,58.00
2017-12-21T02:38:38.352Z,58.80
2017-12-21T02:39:38.339Z,58.70
2017-12-21T02:40:38.314Z,57.70
2017-12-21T02:41:38.293Z,56.00
2017-12-21T02:42:38.276Z,58.60
2017-12-21T02:43:38.258Z,63.30
2017-12-21T02:44:38.240Z,67.10
2017-12-21T02:45:38.215Z,67.00
2017-12-21T02:46:38.199Z,64.40
2017-12-21T02:47:38.184Z,61.90
2017-12-21T02:48:38.165Z,63.80
2017-12-21T02:49:38.147Z,71.40
2017-12-21T02:50:38.128Z,71.10
2017-12-21T02:51:38.110Z,68.50
2017-12-21T02:52:38.098Z,75.10
2017-12-21T02:53:38.085Z,78.40
2017-12-21T02:54:38.055Z,74.20
2017-12-21T02:55:38.034Z,82.90
2017-12-21T02:56:38.019Z,76.70
2017-12-21T02:57:38.001Z,81.90
2017-12-21T02:58:37.985Z,90.70
2017-12-21T02:59:37.963Z,84.30
2017-12-21T03:00:37.942Z,83.90
2017-12-21T03:01:37.918Z,82.80
2017-12-21T03:02:37.906Z,84.50
2017-12-21T03:03:37.892Z,100.30
2017-12-21T03:04:37.874Z,87.00
2017-12-21T03:05:37.854Z,93.20
2017-12-21T03:06:37.833Z,88.30
2017-12-21T03:07:37.817Z,88.10
2017-12-21T03:08:37.798Z,94.70
2017-12-21T03:09:37.781Z,88.80
2017-12-21T03:10:37.761Z,88.20
2017-12-21T03:11:37.741Z,95.90
2017-12-21T03:12:37.727Z,92.40
2017-12-21T03:13:37.707Z,96.00
2017-12-21T03:14:37.689Z,92.50
2017-12-21T03:15:37.670Z,87.10
2017-12-21T03:16:37.650Z,95.40
2017-12-21T03:17:37.635Z,88.30
2017-12-21T03:18:37.615Z,87.60
2017-12-21T03:19:37.634Z,85.50
2017-12-21T03:20:37.579Z,82.10
2017-12-21T03:21:37.573Z,78.70
2017-12-21T03:22:37.541Z,84.10
2017-12-21T03:23:37.545Z,84.30
2017-12-21T03:24:37.520Z,86.50
2017-12-21T03:25:37.501Z,91.20
2017-12-21T03:26:37.502Z,86.10
2017-12-21T03:27:37.453Z,89.80
2017-12-21T03:28:37.431Z,85.00
2017-12-21T03:29:37.414Z,83.60
2017-12-21T03:30:37.397Z,89.30
2017-12-21T03:31:37.388Z,84.40
2017-12-21T03:32:37.354Z,83.00
2017-12-21T03:33:37.337Z,87.10
2017-12-21T03:34:37.319Z,80.90
2017-12-21T03:35:37.307Z,77.60
2017-12-21T03:36:37.281Z,82.50
2017-12-21T03:37:37.271Z,83.30
2017-12-21T03:38:37.248Z,77.70
2017-12-21T03:39:37.234Z,80.10
2017-12-21T03:40:37.212Z,84.50
2017-12-21T03:41:37.195Z,76.90
2017-12-21T03:42:37.175Z,82.10
2017-12-21T03:43:37.156Z,79.60
2017-12-21T03:44:37.140Z,71.70
2017-12-21T03:45:37.121Z,79.30
2017-12-21T03:46:37.102Z,79.70
2017-12-21T03:47:37.085Z,73.40
2017-12-21T03:48:37.066Z,78.60
2017-12-21T03:49:37.049Z,78.20
2017-12-21T03:50:37.029Z,80.50
2017-12-21T03:51:37.010Z,79.80
2017-12-21T03:52:36.992Z,75.40
2017-12-21T03:53:36.973Z,72.70
2017-12-21T03:54:36.949Z,79.90
2017-12-21T03:55:36.943Z,68.60
2017-12-21T03:56:36.924Z,74.00
2017-12-21T03:57:36.899Z,76.30
2017-12-21T03:58:36.884Z,77.10
2017-12-21T03:59:36.864Z,80.40
2017-12-21T04:00:36.848Z,75.30
2017-12-21T04:01:36.824Z,76.60
2017-12-21T04:02:36.808Z,76.80
2017-12-21T04:03:36.791Z,80.30
2017-12-21T04:04:36.775Z,77.40
2017-12-21T04:05:36.754Z,77.20
2017-12-21T04:06:36.730Z,75.80
2017-12-21T04:07:36.717Z,80.40
2017-12-21T04:08:36.699Z,75.70
2017-12-21T04:09:36.688Z,71.10
2017-12-21T04:10:36.672Z,67.80
2017-12-21T04:11:36.645Z,79.20
2017-12-21T04:12:36.626Z,77.00
2017-12-21T04:13:36.611Z,82.90
2017-12-21T04:14:36.580Z,81.30
2017-12-21T04:15:36.571Z,89.40
2017-12-21T04:16:36.551Z,84.30
2017-12-21T04:17:36.536Z,83.80
2017-12-21T04:18:36.516Z,93.80
2017-12-21T04:19:36.490Z,94.40
2017-12-21T04:20:36.484Z,93.40
2017-12-21T04:21:36.461Z,108.80
2017-12-21T04:22:36.441Z,112.10
2017-12-21T04:23:36.423Z,110.90
2017-12-21T04:24:36.419Z,117.00
2017-12-21T04:25:36.394Z,118.10
2017-12-21T04:26:36.366Z,121.70
2017-12-21T04:27:36.354Z,130.10
2017-12-21T04:28:36.335Z,126.30
2017-12-21T04:29:36.326Z,118.80
2017-12-21T04:30:36.305Z,121.10
2017-12-21T04:31:36.276Z,117.00
2017-12-21T04:32:36.261Z,120.90
2017-12-21T04:33:36.290Z,131.60
2017-12-21T04:34:36.219Z,129.70
2017-12-21T04:35:36.203Z,138.70
2017-12-21T04:36:36.191Z,129.50
2017-12-21T04:37:36.171Z,136.10
2017-12-21T04:38:36.147Z,127.40
2017-12-21T04:39:36.130Z,122.80
2017-12-21T04:40:36.112Z,139.00
2017-12-21T04:41:36.098Z,141.00
2017-12-21T04:42:36.088Z,142.50
2017-12-21T04:43:36.077Z,127.90
2017-12-21T04:44:36.044Z,133.00
2017-12-21T04:45:36.023Z,143.20
2017-12-21T04:46:36.004Z,137.50
2017-12-21T04:47:35.984Z,147.50
2017-12-21T04:48:35.967Z,149.00
2017-12-21T04:49:35.957Z,135.60
2017-12-21T04:50:35.923Z,146.00
2017-12-21T04:51:35.911Z,146.70
2017-12-21T04:52:35.920Z,130.80
2017-12-21T04:53:35.871Z,141.80
2017-12-21T04:54:35.866Z,150.70
2017-12-21T04:55:35.833Z,149.00
2017-12-21T04:56:35.820Z,146.10
2017-12-21T04:57:35.801Z,139.20
2017-12-21T04:58:35.789Z,142.30
2017-12-21T04:59:35.763Z,140.50
2017-12-21T05:00:35.753Z,142.20
2017-12-21T05:01:35.723Z,142.60
2017-12-21T05:02:35.711Z,141.70
2017-12-21T05:03:35.726Z,147.60
2017-12-21T05:04:35.692Z,143.90
2017-12-21T05:05:35.652Z,133.60
2017-12-21T05:06:35.630Z,140.70
2017-12-21T05:07:35.630Z,133.90
2017-12-21T05:08:35.609Z,129.00
2017-12-21T05:09:35.580Z,121.30
2017-12-21T05:10:35.571Z,128.00
2017-12-21T05:11:35.563Z,142.00
2017-12-21T05:12:35.539Z,126.10
2017-12-21T05:13:35.501Z,136.40
2017-12-21T05:14:35.482Z,134.60
2017-12-21T05:15:35.479Z,120.30
2017-12-21T05:16:35.467Z,118.80
2017-12-21T05:17:35.433Z,135.30
2017-12-21T05:18:35.427Z,131.20
2017-12-21T05:19:35.407Z,126.40
2017-12-21T05:20:35.386Z,139.10
2017-12-21T05:21:35.352Z,129.30
2017-12-21T05:22:35.359Z,118.60
2017-12-21T05:23:35.331Z,120.20
2017-12-21T05:24:35.300Z,120.40
2017-12-21T05:25:35.276Z,130.20
2017-12-21T05:26:35.258Z,118.70
2017-12-21T05:27:35.241Z,122.60
2017-12-21T05:28:35.235Z,115.40
2017-12-21T05:29:35.216Z,114.50
2017-12-21T05:30:35.183Z,130.20
2017-12-21T05:31:35.180Z,116.20
2017-12-21T05:32:35.164Z,130.20
2017-12-21T05:33:35.134Z,125.60
2017-12-21T05:34:35.116Z,123.20
2017-12-21T05:35:35.096Z,108.30
2017-12-21T05:36:35.091Z,114.20
2017-12-21T05:37:35.054Z,112.80
2017-12-21T05:38:35.062Z,120.90
2017-12-21T05:39:35.042Z,109.30
2017-12-21T05:40:35.022Z,116.50
2017-12-21T05:41:35.000Z,114.10
2017-12-21T05:42:34.965Z,109.20
2017-12-21T05:43:34.945Z,108.20
2017-12-21T05:44:35.006Z,111.70
2017-12-21T05:45:34.914Z,108.30
2017-12-21T05:46:34.948Z,109.30
2017-12-21T05:47:34.897Z,114.40
2017-12-21T05:48:34.869Z,106.10
2017-12-21T05:49:34.852Z,100.40
2017-12-21T05:50:34.815Z,110.20
2017-12-21T05:51:34.800Z,116.00
2017-12-21T05:52:34.802Z,108.90
2017-12-21T05:53:34.770Z,98.70
2017-12-21T05:54:34.756Z,104.10
2017-12-21T05:55:34.725Z,98.00
2017-12-21T05:56:34.724Z,100.00
2017-12-21T05:57:34.715Z,97.60
2017-12-21T05:58:34.687Z,110.80
2017-12-21T05:59:34.651Z,113.20
2017-12-21T06:00:34.653Z,102.60
2017-12-21T06:01:34.648Z,101.20
2017-12-21T06:02:34.612Z,98.40
2017-12-21T06:03:34.596Z,90.50
2017-12-21T06:04:34.572Z,96.40
2017-12-21T06:05:34.561Z,105.00
2017-12-21T06:06:34.554Z,96.20
2017-12-21T06:07:34.519Z,95.70
2017-12-21T06:08:34.481Z,88.80
2017-12-21T06:09:34.474Z,99.90
2017-12-21T06:10:34.444Z,89.50
2017-12-21T06:11:34.442Z,85.70
2017-12-21T06:12:34.416Z,92.50
2017-12-21T06:13:34.403Z,81.20
2017-12-21T06:14:34.367Z,91.00
2017-12-21T06:15:34.349Z,94.20
2017-12-21T06:16:34.350Z,85.20
2017-12-21T06:17:34.355Z,86.00
2017-12-21T06:18:34.299Z,84.60
2017-12-21T06:19:34.344Z,80.90
2017-12-21T06:20:34.274Z,84.30
2017-12-21T06:21:34.255Z,83.80
2017-12-21T06:22:34.263Z,75.50
2017-12-21T06:23:34.206Z,78.20
2017-12-21T06:24:34.219Z,62.50
2017-12-21T06:25:34.203Z,67.60
2017-12-21T06:26:34.186Z,73.00
2017-12-21T06:27:34.177Z,72.80
2017-12-21T06:28:34.121Z,74.90
2017-12-21T06:29:34.105Z,76.20
2017-12-21T06:30:34.096Z,68.90
2017-12-21T06:31:34.071Z,71.60
2017-12-21T06:32:34.062Z,71.00
2017-12-21T06:33:34.038Z,65.60
2017-12-21T06:34:34.028Z,69.20
2017-12-21T06:35:33.976Z,60.20
2017-12-21T06:36:33.973Z,59.20
2017-12-21T06:37:33.959Z,63.30
2017-12-21T06:38:33.962Z,73.50
2017-12-21T06:39:33.919Z,58.90
2017-12-21T06:40:33.906Z,65.80
2017-12-21T06:41:33.888Z,64.80
2017-12-21T06:42:33.950Z,68.00
2017-12-21T06:43:33.855Z,66.50
2017-12-21T06:44:33.830Z,61.50
2017-12-21T06:45:33.808Z,67.00
2017-12-21T06:46:33.790Z,68.20
2017-12-21T06:47:33.763Z,66.80
2017-12-21T06:48:33.762Z,64.10
2017-12-21T06:49:33.728Z,60.30
2017-12-21T06:50:33.702Z,65.10
2017-12-21T06:51:33.684Z,60.20
2017-12-21T06:52:33.730Z,59.90
2017-12-21T06:53:33.737Z,65.00
2017-12-21T06:54:33.635Z,64.10
2017-12-21T06:55:33.609Z,66.90
2017-12-21T06:56:33.633Z,67.70
2017-12-21T06:57:33.587Z,62.90
2017-12-21T06:58:33.556Z,63.60
2017-12-21T06:59:33.532Z,62.30
2017-12-21T07:00:33.514Z,62.20
2017-12-21T07:01:35.070Z,62.50
2017-12-21T07:02:33.484Z,61.80
2017-12-21T07:03:33.481Z,63.90
2017-12-21T07:04:33.442Z,63.10
2017-12-21T07:05:33.448Z,60.30
2017-12-21T07:06:33.481Z,58.60
2017-12-21T07:07:33.387Z,67.20
2017-12-21T07:08:33.361Z,58.60
2017-12-21T07:09:33.348Z,66.70
2017-12-21T07:10:33.332Z,56.00
2017-12-21T07:11:33.303Z,62.80
2017-12-21T07:12:33.298Z,57.20
2017-12-21T07:13:33.280Z,56.40
2017-12-21T07:14:33.258Z,62.20
2017-12-21T07:15:33.241Z,63.60
2017-12-21T07:16:33.206Z,58.50
2017-12-21T07:17:33.220Z,65.40
2017-12-21T07:18:33.191Z,63.50
2017-12-21T07:19:33.167Z,56.90
2017-12-21T07:20:33.143Z,64.60
2017-12-21T07:21:33.154Z,59.40
2017-12-21T07:22:33.112Z,59.40
2017-12-21T07:23:33.156Z,59.50
2017-12-21T07:24:33.067Z,61.30
2017-12-21T07:25:33.077Z,59.00
2017-12-21T07:26:33.060Z,53.60
2017-12-21T07:27:33.015Z,50.30
2017-12-21T07:28:33.023Z,57.90
2017-12-21T07:29:32.987Z,59.10
2017-12-21T07:30:32.973Z,57.80
2017-12-21T07:31:32.962Z,60.30
2017-12-21T07:32:32.965Z,60.80
2017-12-21T07:33:32.906Z,56.00
2017-12-21T07:34:32.895Z,50.40
2017-12-21T07:35:32.857Z,57.50
2017-12-21T07:36:32.857Z,53.20
2017-12-21T07:37:32.833Z,56.10
2017-12-21T07:38:32.797Z,53.70
2017-12-21T07:39:32.791Z,50.50
2017-12-21T07:40:32.763Z,51.80
2017-12-21T07:41:32.853Z,48.50
2017-12-21T07:42:32.740Z,57.20
2017-12-21T07:43:32.724Z,54.30
2017-12-21T07:44:32.703Z,46.70
2017-12-21T07:45:32.672Z,52.80
2017-12-21T07:46:32.655Z,47.90
2017-12-21T07:47:32.633Z,52.90
2017-12-21T07:48:32.625Z,47.00
2017-12-21T07:49:32.624Z,50.70
2017-12-21T07:50:32.572Z,45.50
2017-12-21T07:51:32.561Z,51.30
2017-12-21T07:52:32.580Z,53.20
2017-12-21T07:53:32.572Z,52.90
2017-12-21T07:54:32.534Z,48.50
2017-12-21T07:55:32.499Z,50.20
2017-12-21T07:56:32.502Z,56.60
2017-12-21T07:57:32.450Z,51.70
2017-12-21T07:58:32.429Z,48.10
2017-12-21T07:59:32.427Z,47.10
2017-12-21T08:00:32.393Z,42.90
2017-12-21T08:01:32.534Z,44.20
2017-12-21T08:02:32.353Z,42.50
2017-12-21T08:03:32.335Z,43.70
2017-12-21T08:04:32.331Z,48.40
2017-12-21T08:05:32.315Z,45.50
2017-12-21T08:06:32.279Z,44.20
2017-12-21T08:07:32.259Z,42.90
2017-12-21T08:08:32.255Z,39.90
2017-12-21T08:09:32.234Z,38.60
2017-12-21T08:10:32.216Z,36.70
2017-12-21T08:11:32.200Z,37.90
2017-12-21T08:12:32.260Z,40.00
2017-12-21T08:13:32.165Z,37.00
2017-12-21T08:14:32.129Z,44.90
2017-12-21T08:15:32.164Z,40.60
2017-12-21T08:16:32.093Z,38.80
2017-12-21T08:17:32.126Z,37.50
2017-12-21T08:18:32.058Z,37.80
2017-12-21T08:19:32.034Z,39.90
2017-12-21T08:20:32.037Z,37.00
2017-12-21T08:21:32.040Z,41.30
2017-12-21T08:22:31.987Z,41.70
2017-12-21T08:23:31.975Z,35.30
2017-12-21T08:24:32.041Z,41.10
2017-12-21T08:25:31.935Z,38.20
2017-12-21T08:26:31.900Z,41.80
2017-12-21T08:27:31.895Z,42.40
2017-12-21T08:28:31.887Z,35.10
2017-12-21T08:29:31.868Z,40.00
2017-12-21T08:30:31.837Z,34.00
2017-12-21T08:31:31.822Z,35.80
2017-12-21T08:32:31.816Z,37.20
2017-12-21T08:33:31.846Z,39.80
2017-12-21T08:34:31.760Z,36.00
2017-12-21T08:35:31.737Z,37.20
2017-12-21T08:36:31.743Z,32.60
2017-12-21T08:37:31.725Z,36.20
2017-12-21T08:38:31.724Z,34.40
2017-12-21T08:39:31.665Z,35.90
2017-12-21T08:40:31.659Z,36.00
2017-12-21T08:41:31.651Z,37.20
2017-12-21T08:42:31.616Z,34.20
2017-12-21T08:43:31.598Z,36.30
2017-12-21T08:44:31.594Z,41.10
2017-12-21T08:45:31.558Z,39.40
2017-12-21T08:46:31.597Z,38.20
2017-12-21T08:47:31.530Z,37.10
2017-12-21T08:48:31.511Z,39.30
2017-12-21T08:49:31.493Z,36.80
2017-12-21T08:50:31.598Z,33.40
2017-12-21T08:51:31.452Z,39.30
2017-12-21T08:52:31.441Z,37.00
2017-12-21T08:53:31.486Z,36.60
2017-12-21T08:54:31.469Z,37.00
2017-12-21T08:55:31.457Z,37.40
2017-12-21T08:56:31.390Z,38.50
2017-12-21T08:57:31.442Z,32.80
2017-12-21T08:58:31.509Z,38.80
2017-12-21T08:59:31.312Z,37.90
2017-12-21T09:00:31.294Z,35.70
2017-12-21T09:01:31.270Z,33.20
2017-12-21T09:02:31.260Z,37.50
2017-12-21T09:03:31.238Z,37.00
2017-12-21T09:04:31.316Z,33.60
2017-12-21T09:05:31.216Z,36.50
2017-12-21T09:06:31.171Z,37.10
2017-12-21T09:07:31.149Z,39.00
2017-12-21T09:08:31.198Z,40.30
2017-12-21T09:09:31.138Z,36.10
2017-12-21T09:10:31.126Z,41.50
2017-12-21T09:11:31.119Z,40.10
2017-12-21T09:12:31.068Z,38.80
2017-12-21T09:13:31.049Z,38.40
2017-12-21T09:14:31.058Z,38.40
2017-12-21T09:15:31.019Z,36.40
2017-12-21T09:16:30.994Z,43.10
2017-12-21T09:17:30.979Z,40.20
2017-12-21T09:18:30.984Z,38.40
2017-12-21T09:19:30.963Z,39.30
2017-12-21T09:20:30.920Z,43.40
2017-12-21T09:21:30.937Z,43.80
2017-12-21T09:22:30.901Z,44.90
2017-12-21T09:23:30.912Z,46.10
2017-12-21T09:24:30.851Z,47.70
2017-12-21T09:25:30.833Z,49.70
2017-12-21T09:26:30.814Z,47.20
2017-12-21T09:27:30.830Z,47.60
2017-12-21T09:28:30.771Z,51.50
2017-12-21T09:29:30.769Z,54.90
2017-12-21T09:30:30.772Z,65.90
2017-12-21T09:31:30.725Z,59.70
2017-12-21T09:32:30.719Z,63.10
2017-12-21T09:33:30.722Z,59.40
2017-12-21T09:34:30.677Z,66.10
2017-12-21T09:35:30.707Z,63.80
2017-12-21T09:36:30.666Z,64.00
2017-12-21T09:37:30.605Z,70.90
2017-12-21T09:38:30.608Z,68.80
2017-12-21T09:39:30.572Z,73.50
2017-12-21T09:40:30.659Z,78.70
2017-12-21T09:41:30.541Z,70.40
2017-12-21T09:42:30.519Z,78.00
2017-12-21T09:43:30.554Z,70.50
2017-12-21T09:44:30.477Z,78.10
2017-12-21T09:45:30.480Z,76.50
2017-12-21T09:46:30.455Z,88.70
2017-12-21T09:47:30.500Z,76.80
2017-12-21T09:48:30.422Z,80.40
2017-12-21T09:49:30.414Z,83.50
2017-12-21T09:50:30.371Z,85.60
2017-12-21T09:51:30.362Z,89.90
2017-12-21T09:52:30.381Z,94.50
2017-12-21T09:53:30.349Z,89.70
2017-12-21T09:54:30.384Z,96.90
2017-12-21T09:55:30.308Z,99.60
2017-12-21T09:56:30.274Z,98.10
2017-12-21T09:57:30.259Z,94.80
2017-12-21T09:58:30.240Z,107.00
2017-12-21T09:59:30.239Z,103.40
2017-12-21T10:00:30.234Z,103.10
2017-12-21T10:01:30.173Z,105.30
2017-12-21T10:02:30.159Z,107.50
2017-12-21T10:03:30.143Z,115.10
2017-12-21T10:04:30.122Z,120.20
2017-12-21T10:05:30.110Z,120.90
2017-12-21T10:06:30.097Z,101.30
2017-12-21T10:07:30.108Z,107.40
2017-12-21T10:08:30.094Z,112.00
2017-12-21T10:09:30.087Z,110.30
2017-12-21T10:10:30.015Z,95.00
2017-12-21T10:11:30.010Z,112.80
2017-12-21T10:12:29.986Z,120.30
2017-12-21T10:13:29.957Z,125.60
2017-12-21T10:14:29.960Z,114.80
2017-12-21T10:15:29.929Z,121.70
2017-12-21T10:16:31.037Z,123.40
2017-12-21T10:17:29.900Z,115.10
2017-12-21T10:18:29.872Z,118.80
2017-12-21T10:19:29.873Z,112.00
2017-12-21T10:20:30.480Z,120.50
2017-12-21T10:21:29.812Z,115.80
2017-12-21T10:22:54.367Z,113.90
2017-12-21T10:23:54.310Z,115.80
2017-12-21T10:25:47.407Z,122.80
2017-12-21T10:26:47.393Z,119.20
2017-12-21T10:28:40.864Z,126.20
2017-12-21T10:29:40.460Z,118.10
2017-12-21T10:31:33.606Z,120.40
2017-12-21T10:32:33.595Z,118.60
2017-12-21T10:34:26.795Z,114.50
2017-12-21T10:35:26.547Z,118.20
2017-12-21T10:37:19.651Z,120.90
2017-12-21T10:38:19.579Z,114.80
2017-12-21T10:40:12.696Z,114.40
2017-12-21T10:41:12.649Z,109.50
2017-12-21T10:42:12.635Z,108.90
2017-12-21T10:43:12.602Z,105.20
2017-12-21T10:44:12.597Z,107.20
2017-12-21T10:45:12.575Z,112.40
2017-12-21T10:46:12.555Z,112.80
2017-12-21T10:47:12.544Z,105.30
2017-12-21T10:48:12.544Z,120.40
2017-12-21T10:49:12.499Z,121.40
2017-12-21T10:50:12.495Z,107.20
2017-12-21T10:51:12.494Z,102.00
2017-12-21T10:52:12.523Z,93.80
2017-12-21T10:53:12.442Z,103.80
2017-12-21T10:54:12.424Z,103.70
2017-12-21T10:55:12.390Z,92.90
2017-12-21T10:56:12.378Z,86.20
2017-12-21T10:57:13.439Z,95.30
2017-12-21T10:58:12.344Z,96.60
2017-12-21T10:59:15.008Z,96.90
2017-12-21T11:00:12.421Z,95.80
2017-12-21T11:01:12.327Z,96.70
2017-12-21T11:02:12.269Z,87.70
2017-12-21T11:03:12.289Z,104.50
2017-12-21T11:04:12.237Z,89.30
2017-12-21T11:05:12.299Z,86.00
2017-12-21T11:06:12.225Z,83.40
2017-12-21T11:07:12.214Z,81.40
2017-12-21T11:08:12.166Z,89.00
2017-12-21T11:09:12.196Z,87.10
2017-12-21T11:10:12.131Z,85.20
2017-12-21T11:11:12.142Z,76.40
2017-12-21T11:12:12.118Z,78.10
2017-12-21T11:13:12.075Z,75.90
2017-12-21T11:14:12.101Z,69.20
2017-12-21T11:15:12.054Z,70.90
2017-12-21T11:16:12.018Z,62.90
2017-12-21T11:17:11.996Z,72.70
2017-12-21T11:18:12.008Z,63.00
2017-12-21T11:19:11.997Z,64.60
2017-12-21T11:20:11.952Z,65.20
2017-12-21T11:21:11.999Z,66.00
2017-12-21T11:22:11.990Z,62.80
2017-12-21T11:23:11.943Z,58.70
2017-12-21T11:24:11.869Z,63.40
2017-12-21T11:25:11.877Z,67.00
2017-12-21T11:26:11.846Z,63.20
2017-12-21T11:27:11.830Z,58.80
2017-12-21T11:28:11.817Z,55.90
2017-12-21T11:29:11.801Z,54.30
2017-12-21T11:30:11.768Z,49.30
2017-12-21T11:31:11.772Z,59.50
2017-12-21T11:32:11.732Z,54.50
2017-12-21T11:33:11.730Z,51.40
2017-12-21T11:34:11.724Z,56.80
2017-12-21T11:35:11.800Z,55.40
2017-12-21T11:36:11.676Z,58.30
2017-12-21T11:37:11.661Z,57.90
2017-12-21T11:38:11.681Z,55.60
2017-12-21T11:39:11.673Z,60.60
2017-12-21T11:40:11.586Z,55.30
2017-12-21T11:41:11.588Z,56.20
2017-12-21T11:42:11.569Z,52.30
2017-12-21T11:43:11.529Z,58.50
2017-12-21T11:44:11.535Z,58.40
2017-12-21T11:45:11.571Z,58.20
2017-12-21T11:46:11.475Z,61.20
2017-12-21T11:47:11.528Z,61.60
2017-12-21T11:48:11.435Z,57.80
2017-12-21T11:49:11.457Z,58.10
2017-12-21T11:50:11.408Z,59.10
2017-12-21T11:51:11.384Z,60.30
2017-12-21T11:52:11.370Z,62.60
2017-12-21T11:53:11.349Z,59.40
2017-12-21T11:54:11.363Z,62.20
2017-12-21T11:55:11.342Z,61.60
2017-12-21T11:56:11.300Z,64.90
2017-12-21T11:57:11.286Z,62.80
2017-12-21T11:58:11.270Z,67.60
2017-12-21T11:59:11.259Z,59.00
2017-12-21T12:00:11.241Z,56.90
2017-12-21T12:01:11.239Z,61.20
2017-12-21T12:02:11.208Z,57.40
2017-12-21T12:03:11.188Z,58.00
2017-12-21T12:04:11.199Z,59.10
2017-12-21T12:05:11.180Z,55.40
2017-12-21T12:06:11.138Z,56.70
2017-12-21T12:07:11.198Z,55.40
2017-12-21T12:08:11.101Z,45.80
2017-12-21T12:09:11.098Z,54.10
2017-12-21T12:10:11.077Z,54.60
2017-12-21T12:11:11.059Z,55.60
2017-12-21T12:12:11.047Z,49.80
2017-12-21T12:13:11.011Z,55.30
2017-12-21T12:14:11.131Z,55.20
2017-12-21T12:15:10.996Z,55.00
2017-12-21T12:16:10.991Z,49.60
2017-12-21T12:17:10.936Z,49.60
2017-12-21T12:18:10.969Z,53.30
2017-12-21T12:19:10.944Z,48.70
2017-12-21T12:20:10.968Z,52.80
2017-12-21T12:21:10.879Z,51.60
2017-12-21T12:22:10.859Z,52.00
2017-12-21T12:23:10.850Z,53.90
2017-12-21T12:24:10.849Z,46.60
2017-12-21T12:25:11.017Z,50.30
2017-12-21T12:26:10.802Z,43.30
2017-12-21T12:27:10.790Z,43.70
2017-12-21T12:28:10.763Z,48.90
2017-12-21T12:29:10.725Z,46.90
2017-12-21T12:30:10.705Z,41.60
2017-12-21T12:31:10.681Z,42.80
2017-12-21T12:32:10.842Z,40.80
2017-12-21T12:33:10.673Z,41.30
2017-12-21T12:34:10.705Z,38.50
2017-12-21T12:35:10.633Z,34.40
2017-12-21T12:36:10.676Z,34.80
2017-12-21T12:37:10.598Z,34.10
2017-12-21T12:38:10.607Z,33.00
2017-12-21T12:39:10.616Z,36.90
2017-12-21T12:40:10.584Z,32.40
2017-12-21T12:41:11.446Z,30.30
2017-12-21T12:42:10.556Z,30.00
2017-12-21T12:43:10.556Z,29.40
2017-12-21T12:44:10.523Z,35.00
2017-12-21T12:45:10.631Z,30.50
2017-12-21T12:46:10.459Z,30.30
2017-12-21T12:47:10.438Z,34.60
2017-12-21T12:48:10.496Z,31.00
2017-12-21T12:49:10.419Z,31.70
2017-12-21T12:50:10.361Z,30.20
2017-12-21T12:51:10.363Z,30.60
2017-12-21T12:52:10.358Z,25.90
2017-12-21T12:53:10.415Z,29.10